sensor_id;sensor_type;location;lat;lon;timestamp;temperature;humidity
37794;DHT22;23632;48.826;15.176;2023-11-19T00:00:17;6.70;63.50
37794;DHT22;23632;48.826;15.176;2023-11-19T00:02:45;6.70;63.50
37794;DHT22;23632;48.826;15.176;2023-11-19T00:05:12;6.80;63.50
37794;DHT22;23632;48.826;15.176;2023-11-19T00:07:42;6.80;63.50
37794;DHT22;23632;48.826;15.176;2023-11-19T00:10:14;6.80;63.60
37794;DHT22;23632;48.826;15.176;2023-11-19T00:12:47;6.80;63.90
37794;DHT22;23632;48.826;15.176;2023-11-19T00:15:17;6.80;63.70
37794;DHT22;23632;48.826;15.176;2023-11-19T00:17:47;6.80;63.90
37794;DHT22;23632;48.826;15.176;2023-11-19T00:20:18;6.70;63.80
37794;DHT22;23632;48.826;15.176;2023-11-19T00:22:47;6.80;64.10
37794;DHT22;23632;48.826;15.176;2023-11-19T00:25:21;6.80;63.90
37794;DHT22;23632;48.826;15.176;2023-11-19T00:27:50;6.80;64.00
37794;DHT22;23632;48.826;15.176;2023-11-19T00:30:18;6.80;64.20
37794;DHT22;23632;48.826;15.176;2023-11-19T00:32:46;6.80;64.20
37794;DHT22;23632;48.826;15.176;2023-11-19T00:35:14;6.80;64.20
37794;DHT22;23632;48.826;15.176;2023-11-19T00:37:42;6.80;64.30
37794;DHT22;23632;48.826;15.176;2023-11-19T00:40:10;6.80;64.30
37794;DHT22;23632;48.826;15.176;2023-11-19T00:42:38;6.80;64.30
37794;DHT22;23632;48.826;15.176;2023-11-19T00:45:06;6.80;64.30
37794;DHT22;23632;48.826;15.176;2023-11-19T00:47:39;6.80;64.30
37794;DHT22;23632;48.826;15.176;2023-11-19T00:50:07;6.90;64.30
37794;DHT22;23632;48.826;15.176;2023-11-19T00:52:39;6.80;64.30
37794;DHT22;23632;48.826;15.176;2023-11-19T00:55:07;6.80;64.20
37794;DHT22;23632;48.826;15.176;2023-11-19T00:57:35;6.80;64.30
37794;DHT22;23632;48.826;15.176;2023-11-19T01:00:05;6.90;64.40
37794;DHT22;23632;48.826;15.176;2023-11-19T01:02:53;6.80;64.30
37794;DHT22;23632;48.826;15.176;2023-11-19T01:05:21;6.80;64.30
37794;DHT22;23632;48.826;15.176;2023-11-19T01:07:50;6.80;64.30
37794;DHT22;23632;48.826;15.176;2023-11-19T01:10:22;6.80;64.30
37794;DHT22;23632;48.826;15.176;2023-11-19T01:12:49;6.80;64.50
37794;DHT22;23632;48.826;15.176;2023-11-19T01:15:17;6.80;64.50
37794;DHT22;23632;48.826;15.176;2023-11-19T01:17:48;6.80;64.50
37794;DHT22;23632;48.826;15.176;2023-11-19T01:20:19;6.80;64.50
37794;DHT22;23632;48.826;15.176;2023-11-19T01:22:49;6.80;64.50
37794;DHT22;23632;48.826;15.176;2023-11-19T01:25:17;6.90;64.60
37794;DHT22;23632;48.826;15.176;2023-11-19T01:27:44;6.80;64.50
37794;DHT22;23632;48.826;15.176;2023-11-19T01:30:12;6.80;64.40
37794;DHT22;23632;48.826;15.176;2023-11-19T01:32:40;6.80;64.40
37794;DHT22;23632;48.826;15.176;2023-11-19T01:35:08;6.80;64.40
37794;DHT22;23632;48.826;15.176;2023-11-19T01:37:36;6.80;64.60
37794;DHT22;23632;48.826;15.176;2023-11-19T01:40:04;6.70;64.60
37794;DHT22;23632;48.826;15.176;2023-11-19T01:42:38;6.70;64.70
37794;DHT22;23632;48.826;15.176;2023-11-19T01:45:06;6.70;65.20
37794;DHT22;23632;48.826;15.176;2023-11-19T01:47:38;6.70;65.00
37794;DHT22;23632;48.826;15.176;2023-11-19T01:50:07;6.70;65.00
37794;DHT22;23632;48.826;15.176;2023-11-19T01:52:36;6.70;65.20
37794;DHT22;23632;48.826;15.176;2023-11-19T01:55:06;6.80;65.30
37794;DHT22;23632;48.826;15.176;2023-11-19T01:57:36;6.80;65.40
37794;DHT22;23632;48.826;15.176;2023-11-19T02:00:06;6.80;65.30
37794;DHT22;23632;48.826;15.176;2023-11-19T02:02:44;6.80;65.30
37794;DHT22;23632;48.826;15.176;2023-11-19T02:05:14;6.80;65.30
37794;DHT22;23632;48.826;15.176;2023-11-19T02:07:41;6.90;65.30
37794;DHT22;23632;48.826;15.176;2023-11-19T02:10:09;6.80;65.20
37794;DHT22;23632;48.826;15.176;2023-11-19T02:12:41;6.90;65.30
37794;DHT22;23632;48.826;15.176;2023-11-19T02:15:12;6.80;65.30
37794;DHT22;23632;48.826;15.176;2023-11-19T02:17:39;6.90;65.30
37794;DHT22;23632;48.826;15.176;2023-11-19T02:20:08;6.90;65.30
37794;DHT22;23632;48.826;15.176;2023-11-19T02:22:39;7.00;65.30
37794;DHT22;23632;48.826;15.176;2023-11-19T02:25:08;7.00;65.30
37794;DHT22;23632;48.826;15.176;2023-11-19T02:27:56;7.00;65.30
37794;DHT22;23632;48.826;15.176;2023-11-19T02:30:28;7.00;65.70
37794;DHT22;23632;48.826;15.176;2023-11-19T02:32:56;7.00;65.20
37794;DHT22;23632;48.826;15.176;2023-11-19T02:35:26;6.90;66.00
37794;DHT22;23632;48.826;15.176;2023-11-19T02:37:57;6.90;65.20
37794;DHT22;23632;48.826;15.176;2023-11-19T02:40:26;7.00;65.40
37794;DHT22;23632;48.826;15.176;2023-11-19T02:42:53;6.90;65.10
37794;DHT22;23632;48.826;15.176;2023-11-19T02:45:26;6.90;65.20
37794;DHT22;23632;48.826;15.176;2023-11-19T02:47:54;6.90;65.20
37794;DHT22;23632;48.826;15.176;2023-11-19T02:50:22;6.90;65.20
37794;DHT22;23632;48.826;15.176;2023-11-19T02:52:54;6.90;65.20
37794;DHT22;23632;48.826;15.176;2023-11-19T02:55:25;6.80;65.50
37794;DHT22;23632;48.826;15.176;2023-11-19T02:57:55;6.80;65.30
37794;DHT22;23632;48.826;15.176;2023-11-19T03:00:26;6.80;65.50
37794;DHT22;23632;48.826;15.176;2023-11-19T03:03:03;6.80;65.40
37794;DHT22;23632;48.826;15.176;2023-11-19T03:05:46;6.70;65.50
37794;DHT22;23632;48.826;15.176;2023-11-19T03:08:15;6.70;65.50
37794;DHT22;23632;48.826;15.176;2023-11-19T03:10:46;6.60;65.50
37794;DHT22;23632;48.826;15.176;2023-11-19T03:13:14;6.60;65.50
37794;DHT22;23632;48.826;15.176;2023-11-19T03:15:42;6.60;65.70
37794;DHT22;23632;48.826;15.176;2023-11-19T03:18:09;6.50;65.60
37794;DHT22;23632;48.826;15.176;2023-11-19T03:20:37;6.50;65.70
37794;DHT22;23632;48.826;15.176;2023-11-19T03:23:04;6.50;65.70
37794;DHT22;23632;48.826;15.176;2023-11-19T03:25:33;6.50;65.90
37794;DHT22;23632;48.826;15.176;2023-11-19T03:28:01;6.50;65.90
37794;DHT22;23632;48.826;15.176;2023-11-19T03:30:30;6.50;66.00
37794;DHT22;23632;48.826;15.176;2023-11-19T03:33:01;6.50;66.10
37794;DHT22;23632;48.826;15.176;2023-11-19T03:35:30;6.50;66.00
37794;DHT22;23632;48.826;15.176;2023-11-19T03:37:57;6.50;66.00
37794;DHT22;23632;48.826;15.176;2023-11-19T03:40:25;6.60;66.10
37794;DHT22;23632;48.826;15.176;2023-11-19T03:42:53;6.60;66.10
37794;DHT22;23632;48.826;15.176;2023-11-19T03:45:20;6.60;66.10
37794;DHT22;23632;48.826;15.176;2023-11-19T03:47:48;6.60;66.10
37794;DHT22;23632;48.826;15.176;2023-11-19T03:50:17;6.60;66.00
37794;DHT22;23632;48.826;15.176;2023-11-19T03:52:48;6.60;66.00
37794;DHT22;23632;48.826;15.176;2023-11-19T03:55:15;6.60;66.00
37794;DHT22;23632;48.826;15.176;2023-11-19T03:57:43;6.60;66.90
37794;DHT22;23632;48.826;15.176;2023-11-19T04:00:10;6.70;66.00
37794;DHT22;23632;48.826;15.176;2023-11-19T04:02:41;6.60;66.00
37794;DHT22;23632;48.826;15.176;2023-11-19T04:05:08;6.60;66.00
37794;DHT22;23632;48.826;15.176;2023-11-19T04:07:37;6.60;66.00
37794;DHT22;23632;48.826;15.176;2023-11-19T04:10:05;6.60;66.20
37794;DHT22;23632;48.826;15.176;2023-11-19T04:12:33;6.60;66.40
37794;DHT22;23632;48.826;15.176;2023-11-19T04:15:00;6.60;66.50
37794;DHT22;23632;48.826;15.176;2023-11-19T04:17:28;6.60;66.50
37794;DHT22;23632;48.826;15.176;2023-11-19T04:19:56;6.60;66.60
37794;DHT22;23632;48.826;15.176;2023-11-19T04:22:23;6.60;66.50
37794;DHT22;23632;48.826;15.176;2023-11-19T04:24:51;6.60;66.50
37794;DHT22;23632;48.826;15.176;2023-11-19T04:27:18;6.70;66.50
37794;DHT22;23632;48.826;15.176;2023-11-19T04:29:46;6.70;66.50
37794;DHT22;23632;48.826;15.176;2023-11-19T04:32:14;6.70;66.60
37794;DHT22;23632;48.826;15.176;2023-11-19T04:34:42;6.70;66.60
37794;DHT22;23632;48.826;15.176;2023-11-19T04:37:09;6.70;66.50
37794;DHT22;23632;48.826;15.176;2023-11-19T04:39:40;6.80;66.50
37794;DHT22;23632;48.826;15.176;2023-11-19T04:42:07;6.80;66.40
37794;DHT22;23632;48.826;15.176;2023-11-19T04:44:35;6.80;66.40
37794;DHT22;23632;48.826;15.176;2023-11-19T04:47:02;6.80;66.40
37794;DHT22;23632;48.826;15.176;2023-11-19T04:49:30;6.80;66.30
37794;DHT22;23632;48.826;15.176;2023-11-19T04:51:57;6.80;66.30
37794;DHT22;23632;48.826;15.176;2023-11-19T04:54:26;6.80;66.30
37794;DHT22;23632;48.826;15.176;2023-11-19T04:56:53;6.80;66.40
37794;DHT22;23632;48.826;15.176;2023-11-19T04:59:21;6.80;66.30
37794;DHT22;23632;48.826;15.176;2023-11-19T05:01:48;6.80;66.30
37794;DHT22;23632;48.826;15.176;2023-11-19T05:04:16;6.80;66.30
37794;DHT22;23632;48.826;15.176;2023-11-19T05:06:46;6.80;66.40
37794;DHT22;23632;48.826;15.176;2023-11-19T05:09:14;6.80;66.40
37794;DHT22;23632;48.826;15.176;2023-11-19T05:11:41;6.70;66.30
37794;DHT22;23632;48.826;15.176;2023-11-19T05:14:11;6.70;66.30
37794;DHT22;23632;48.826;15.176;2023-11-19T05:16:42;6.70;66.30
37794;DHT22;23632;48.826;15.176;2023-11-19T05:19:12;6.70;66.60
37794;DHT22;23632;48.826;15.176;2023-11-19T05:21:44;6.60;66.40
37794;DHT22;23632;48.826;15.176;2023-11-19T05:24:11;6.60;66.70
37794;DHT22;23632;48.826;15.176;2023-11-19T05:26:39;6.60;66.70
37794;DHT22;23632;48.826;15.176;2023-11-19T05:29:07;6.60;66.80
37794;DHT22;23632;48.826;15.176;2023-11-19T05:31:35;6.60;66.80
37794;DHT22;23632;48.826;15.176;2023-11-19T05:34:04;6.60;66.90
37794;DHT22;23632;48.826;15.176;2023-11-19T05:36:32;6.60;66.80
37794;DHT22;23632;48.826;15.176;2023-11-19T05:39:00;6.70;66.80
37794;DHT22;23632;48.826;15.176;2023-11-19T05:41:27;6.70;66.80
37794;DHT22;23632;48.826;15.176;2023-11-19T05:43:55;6.70;66.70
37794;DHT22;23632;48.826;15.176;2023-11-19T05:46:22;6.70;66.80
37794;DHT22;23632;48.826;15.176;2023-11-19T05:48:50;6.70;67.10
37794;DHT22;23632;48.826;15.176;2023-11-19T05:51:18;6.70;66.80
37794;DHT22;23632;48.826;15.176;2023-11-19T05:53:45;6.70;66.80
37794;DHT22;23632;48.826;15.176;2023-11-19T05:56:13;6.70;66.80
37794;DHT22;23632;48.826;15.176;2023-11-19T05:58:43;6.70;67.70
37794;DHT22;23632;48.826;15.176;2023-11-19T06:01:12;6.70;66.90
37794;DHT22;23632;48.826;15.176;2023-11-19T06:03:40;6.70;66.90
37794;DHT22;23632;48.826;15.176;2023-11-19T06:06:07;6.70;66.90
37794;DHT22;23632;48.826;15.176;2023-11-19T06:08:35;6.70;66.90
37794;DHT22;23632;48.826;15.176;2023-11-19T06:11:04;6.70;66.90
37794;DHT22;23632;48.826;15.176;2023-11-19T06:13:32;6.70;66.90
37794;DHT22;23632;48.826;15.176;2023-11-19T06:15:59;6.60;67.00
37794;DHT22;23632;48.826;15.176;2023-11-19T06:18:27;6.60;67.10
37794;DHT22;23632;48.826;15.176;2023-11-19T06:20:55;6.70;67.20
37794;DHT22;23632;48.826;15.176;2023-11-19T06:23:22;6.70;67.20
37794;DHT22;23632;48.826;15.176;2023-11-19T06:25:49;6.70;67.20
37794;DHT22;23632;48.826;15.176;2023-11-19T06:28:17;6.70;67.20
37794;DHT22;23632;48.826;15.176;2023-11-19T06:30:44;6.70;67.30
37794;DHT22;23632;48.826;15.176;2023-11-19T06:33:15;6.70;67.30
37794;DHT22;23632;48.826;15.176;2023-11-19T06:35:43;6.80;67.30
37794;DHT22;23632;48.826;15.176;2023-11-19T06:38:11;6.70;67.20
37794;DHT22;23632;48.826;15.176;2023-11-19T06:40:38;6.80;67.20
37794;DHT22;23632;48.826;15.176;2023-11-19T06:43:08;6.80;67.30
37794;DHT22;23632;48.826;15.176;2023-11-19T06:45:36;6.70;67.50
37794;DHT22;23632;48.826;15.176;2023-11-19T06:48:04;6.70;67.40
37794;DHT22;23632;48.826;15.176;2023-11-19T06:50:32;6.70;67.50
37794;DHT22;23632;48.826;15.176;2023-11-19T06:53:00;6.70;67.40
37794;DHT22;23632;48.826;15.176;2023-11-19T06:55:28;6.70;67.50
37794;DHT22;23632;48.826;15.176;2023-11-19T06:57:56;6.70;67.60
37794;DHT22;23632;48.826;15.176;2023-11-19T07:00:24;6.70;67.60
37794;DHT22;23632;48.826;15.176;2023-11-19T07:02:51;6.70;67.70
37794;DHT22;23632;48.826;15.176;2023-11-19T07:05:19;6.70;67.70
37794;DHT22;23632;48.826;15.176;2023-11-19T07:07:46;6.70;67.60
37794;DHT22;23632;48.826;15.176;2023-11-19T07:10:14;6.70;67.70
37794;DHT22;23632;48.826;15.176;2023-11-19T07:12:42;6.80;67.90
37794;DHT22;23632;48.826;15.176;2023-11-19T07:15:10;6.80;67.90
37794;DHT22;23632;48.826;15.176;2023-11-19T07:17:39;6.80;68.00
37794;DHT22;23632;48.826;15.176;2023-11-19T07:20:08;6.80;68.00
37794;DHT22;23632;48.826;15.176;2023-11-19T07:22:36;6.90;68.00
37794;DHT22;23632;48.826;15.176;2023-11-19T07:25:05;6.90;67.90
37794;DHT22;23632;48.826;15.176;2023-11-19T07:27:33;6.90;68.00
37794;DHT22;23632;48.826;15.176;2023-11-19T07:30:00;7.00;68.10
37794;DHT22;23632;48.826;15.176;2023-11-19T07:32:28;6.90;68.00
37794;DHT22;23632;48.826;15.176;2023-11-19T07:34:55;7.00;68.10
37794;DHT22;23632;48.826;15.176;2023-11-19T07:37:23;7.00;68.00
37794;DHT22;23632;48.826;15.176;2023-11-19T07:39:51;7.00;68.10
37794;DHT22;23632;48.826;15.176;2023-11-19T07:42:18;7.00;68.10
37794;DHT22;23632;48.826;15.176;2023-11-19T07:44:46;7.10;68.10
37794;DHT22;23632;48.826;15.176;2023-11-19T07:47:13;7.10;68.10
37794;DHT22;23632;48.826;15.176;2023-11-19T07:49:41;7.10;68.10
37794;DHT22;23632;48.826;15.176;2023-11-19T07:52:12;7.20;68.20
37794;DHT22;23632;48.826;15.176;2023-11-19T07:54:42;7.20;68.20
37794;DHT22;23632;48.826;15.176;2023-11-19T07:57:09;7.20;68.30
37794;DHT22;23632;48.826;15.176;2023-11-19T07:59:37;7.20;68.50
37794;DHT22;23632;48.826;15.176;2023-11-19T08:02:06;7.20;68.50
37794;DHT22;23632;48.826;15.176;2023-11-19T08:04:34;7.30;68.60
37794;DHT22;23632;48.826;15.176;2023-11-19T08:07:02;7.30;68.60
37794;DHT22;23632;48.826;15.176;2023-11-19T08:09:29;7.40;68.60
37794;DHT22;23632;48.826;15.176;2023-11-19T08:11:58;7.40;68.50
37794;DHT22;23632;48.826;15.176;2023-11-19T08:14:25;7.40;68.50
37794;DHT22;23632;48.826;15.176;2023-11-19T08:16:53;7.50;68.50
37794;DHT22;23632;48.826;15.176;2023-11-19T08:19:20;7.50;68.50
37794;DHT22;23632;48.826;15.176;2023-11-19T08:21:47;7.50;68.50
37794;DHT22;23632;48.826;15.176;2023-11-19T08:24:15;7.50;68.50
37794;DHT22;23632;48.826;15.176;2023-11-19T08:26:42;7.60;68.60
37794;DHT22;23632;48.826;15.176;2023-11-19T08:29:10;7.60;68.60
37794;DHT22;23632;48.826;15.176;2023-11-19T08:31:37;7.70;68.60
37794;DHT22;23632;48.826;15.176;2023-11-19T08:34:05;7.70;68.60
37794;DHT22;23632;48.826;15.176;2023-11-19T08:36:36;7.80;68.60
37794;DHT22;23632;48.826;15.176;2023-11-19T08:39:04;7.80;68.60
37794;DHT22;23632;48.826;15.176;2023-11-19T08:41:31;7.80;68.60
37794;DHT22;23632;48.826;15.176;2023-11-19T08:43:58;7.90;68.60
37794;DHT22;23632;48.826;15.176;2023-11-19T08:46:26;8.00;68.80
37794;DHT22;23632;48.826;15.176;2023-11-19T08:48:53;8.00;68.80
37794;DHT22;23632;48.826;15.176;2023-11-19T08:51:25;8.00;68.80
37794;DHT22;23632;48.826;15.176;2023-11-19T08:53:52;8.10;68.80
37794;DHT22;23632;48.826;15.176;2023-11-19T08:56:20;8.10;68.70
37794;DHT22;23632;48.826;15.176;2023-11-19T08:58:47;8.10;68.70
37794;DHT22;23632;48.826;15.176;2023-11-19T09:01:14;8.20;68.70
37794;DHT22;23632;48.826;15.176;2023-11-19T09:03:42;8.20;69.60
37794;DHT22;23632;48.826;15.176;2023-11-19T09:06:10;8.20;68.50
37794;DHT22;23632;48.826;15.176;2023-11-19T09:08:37;8.20;68.50
37794;DHT22;23632;48.826;15.176;2023-11-19T09:11:07;8.20;68.50
37794;DHT22;23632;48.826;15.176;2023-11-19T09:13:36;8.30;68.80
37794;DHT22;23632;48.826;15.176;2023-11-19T09:16:04;8.30;68.60
37794;DHT22;23632;48.826;15.176;2023-11-19T09:18:31;8.30;69.50
37794;DHT22;23632;48.826;15.176;2023-11-19T09:20:59;8.40;69.30
37794;DHT22;23632;48.826;15.176;2023-11-19T09:23:26;8.40;68.30
37794;DHT22;23632;48.826;15.176;2023-11-19T09:25:56;8.40;68.40
37794;DHT22;23632;48.826;15.176;2023-11-19T09:28:24;8.40;68.50
37794;DHT22;23632;48.826;15.176;2023-11-19T09:30:51;8.40;68.60
37794;DHT22;23632;48.826;15.176;2023-11-19T09:33:18;8.50;68.80
37794;DHT22;23632;48.826;15.176;2023-11-19T09:35:47;8.50;68.90
37794;DHT22;23632;48.826;15.176;2023-11-19T09:38:17;8.50;68.90
37794;DHT22;23632;48.826;15.176;2023-11-19T09:40:44;8.60;69.20
37794;DHT22;23632;48.826;15.176;2023-11-19T09:43:13;8.70;69.20
37794;DHT22;23632;48.826;15.176;2023-11-19T09:45:51;8.70;69.20
37794;DHT22;23632;48.826;15.176;2023-11-19T09:48:19;8.80;69.60
37794;DHT22;23632;48.826;15.176;2023-11-19T09:50:48;8.90;69.30
37794;DHT22;23632;48.826;15.176;2023-11-19T09:53:16;8.90;69.40
37794;DHT22;23632;48.826;15.176;2023-11-19T09:55:44;9.00;69.50
37794;DHT22;23632;48.826;15.176;2023-11-19T09:58:14;9.00;69.70
37794;DHT22;23632;48.826;15.176;2023-11-19T10:00:43;9.10;70.00
37794;DHT22;23632;48.826;15.176;2023-11-19T10:03:19;9.20;70.10
37794;DHT22;23632;48.826;15.176;2023-11-19T10:05:46;9.30;70.10
37794;DHT22;23632;48.826;15.176;2023-11-19T10:08:14;9.40;70.30
37794;DHT22;23632;48.826;15.176;2023-11-19T10:10:43;9.40;70.40
37794;DHT22;23632;48.826;15.176;2023-11-19T10:13:11;9.50;70.30
37794;DHT22;23632;48.826;15.176;2023-11-19T10:15:41;9.60;70.40
37794;DHT22;23632;48.826;15.176;2023-11-19T10:18:11;9.60;70.40
37794;DHT22;23632;48.826;15.176;2023-11-19T10:20:41;9.70;70.50
37794;DHT22;23632;48.826;15.176;2023-11-19T10:23:08;9.80;70.80
37794;DHT22;23632;48.826;15.176;2023-11-19T10:25:37;9.90;70.70
37794;DHT22;23632;48.826;15.176;2023-11-19T10:28:05;10.00;69.50
37794;DHT22;23632;48.826;15.176;2023-11-19T10:30:32;10.10;69.70
37794;DHT22;23632;48.826;15.176;2023-11-19T10:33:11;10.20;69.70
37794;DHT22;23632;48.826;15.176;2023-11-19T10:35:56;10.20;70.30
37794;DHT22;23632;48.826;15.176;2023-11-19T10:38:28;10.30;70.00
37794;DHT22;23632;48.826;15.176;2023-11-19T10:40:55;10.40;69.80
37794;DHT22;23632;48.826;15.176;2023-11-19T10:43:23;10.50;69.70
37794;DHT22;23632;48.826;15.176;2023-11-19T10:45:52;10.60;70.00
37794;DHT22;23632;48.826;15.176;2023-11-19T10:48:19;10.60;69.90
37794;DHT22;23632;48.826;15.176;2023-11-19T10:50:53;10.70;70.10
37794;DHT22;23632;48.826;15.176;2023-11-19T10:53:23;10.70;70.40
37794;DHT22;23632;48.826;15.176;2023-11-19T10:55:55;10.80;70.20
37794;DHT22;23632;48.826;15.176;2023-11-19T10:58:28;10.90;70.50
37794;DHT22;23632;48.826;15.176;2023-11-19T11:01:02;11.00;70.60
37794;DHT22;23632;48.826;15.176;2023-11-19T11:03:38;11.10;70.70
37794;DHT22;23632;48.826;15.176;2023-11-19T11:06:08;11.10;70.70
37794;DHT22;23632;48.826;15.176;2023-11-19T11:08:37;11.20;70.40
37794;DHT22;23632;48.826;15.176;2023-11-19T11:11:07;11.20;70.50
37794;DHT22;23632;48.826;15.176;2023-11-19T11:13:40;11.30;70.70
37794;DHT22;23632;48.826;15.176;2023-11-19T11:16:09;11.30;70.80
37794;DHT22;23632;48.826;15.176;2023-11-19T11:18:38;11.40;70.60
37794;DHT22;23632;48.826;15.176;2023-11-19T11:21:12;11.50;70.60
37794;DHT22;23632;48.826;15.176;2023-11-19T11:30:29;11.70;71.10
37794;DHT22;23632;48.826;15.176;2023-11-19T11:33:29;11.70;71.20
37794;DHT22;23632;48.826;15.176;2023-11-19T11:36:20;11.80;71.30
37794;DHT22;23632;48.826;15.176;2023-11-19T11:38:49;11.80;71.30
37794;DHT22;23632;48.826;15.176;2023-11-19T11:41:23;11.90;71.00
37794;DHT22;23632;48.826;15.176;2023-11-19T11:43:56;11.90;71.00
37794;DHT22;23632;48.826;15.176;2023-11-19T11:49:06;12.10;71.50
37794;DHT22;23632;48.826;15.176;2023-11-19T11:57:12;12.20;71.10
37794;DHT22;23632;48.826;15.176;2023-11-19T12:02:10;12.30;70.80
37794;DHT22;23632;48.826;15.176;2023-11-19T12:04:43;12.30;70.90
37794;DHT22;23632;48.826;15.176;2023-11-19T12:07:23;12.30;71.30
37794;DHT22;23632;48.826;15.176;2023-11-19T12:10:06;12.40;71.50
37794;DHT22;23632;48.826;15.176;2023-11-19T12:12:35;12.40;71.50
37794;DHT22;23632;48.826;15.176;2023-11-19T12:15:10;12.40;71.00
37794;DHT22;23632;48.826;15.176;2023-11-19T12:17:43;12.40;71.20
37794;DHT22;23632;48.826;15.176;2023-11-19T12:20:19;12.50;71.30
37794;DHT22;23632;48.826;15.176;2023-11-19T12:22:51;12.50;71.40
37794;DHT22;23632;48.826;15.176;2023-11-19T12:25:20;12.50;71.40
37794;DHT22;23632;48.826;15.176;2023-11-19T12:27:53;12.60;71.40
37794;DHT22;23632;48.826;15.176;2023-11-19T12:30:25;12.60;71.70
37794;DHT22;23632;48.826;15.176;2023-11-19T12:32:54;12.60;71.30
37794;DHT22;23632;48.826;15.176;2023-11-19T12:35:23;12.60;71.30
37794;DHT22;23632;48.826;15.176;2023-11-19T12:37:51;12.60;71.40
37794;DHT22;23632;48.826;15.176;2023-11-19T12:40:22;12.60;71.40
37794;DHT22;23632;48.826;15.176;2023-11-19T12:42:52;12.60;71.50
37794;DHT22;23632;48.826;15.176;2023-11-19T12:45:22;12.60;71.50
37794;DHT22;23632;48.826;15.176;2023-11-19T12:48:08;12.60;71.50
37794;DHT22;23632;48.826;15.176;2023-11-19T12:50:53;12.70;72.20
37794;DHT22;23632;48.826;15.176;2023-11-19T12:53:29;12.70;72.00
37794;DHT22;23632;48.826;15.176;2023-11-19T12:56:07;12.70;71.40
37794;DHT22;23632;48.826;15.176;2023-11-19T12:58:36;12.70;71.90
37794;DHT22;23632;48.826;15.176;2023-11-19T13:01:06;12.70;72.30
37794;DHT22;23632;48.826;15.176;2023-11-19T13:03:36;12.70;71.50
37794;DHT22;23632;48.826;15.176;2023-11-19T13:06:10;12.80;71.60
37794;DHT22;23632;48.826;15.176;2023-11-19T13:08:40;12.80;71.60
37794;DHT22;23632;48.826;15.176;2023-11-19T13:11:13;12.80;71.50
37794;DHT22;23632;48.826;15.176;2023-11-19T13:14:01;12.80;71.50
37794;DHT22;23632;48.826;15.176;2023-11-19T13:16:32;12.80;72.00
37794;DHT22;23632;48.826;15.176;2023-11-19T13:19:00;12.80;71.60
37794;DHT22;23632;48.826;15.176;2023-11-19T13:21:28;12.70;71.50
37794;DHT22;23632;48.826;15.176;2023-11-19T13:23:57;12.70;71.50
37794;DHT22;23632;48.826;15.176;2023-11-19T13:26:25;12.70;71.50
37794;DHT22;23632;48.826;15.176;2023-11-19T13:28:53;12.70;71.60
37794;DHT22;23632;48.826;15.176;2023-11-19T13:31:21;12.70;71.50
37794;DHT22;23632;48.826;15.176;2023-11-19T13:33:49;12.70;71.70
37794;DHT22;23632;48.826;15.176;2023-11-19T13:36:17;12.70;71.60
37794;DHT22;23632;48.826;15.176;2023-11-19T13:38:45;12.70;71.70
37794;DHT22;23632;48.826;15.176;2023-11-19T13:41:14;12.80;71.70
37794;DHT22;23632;48.826;15.176;2023-11-19T13:43:41;12.80;71.70
37794;DHT22;23632;48.826;15.176;2023-11-19T13:46:09;12.80;71.70
37794;DHT22;23632;48.826;15.176;2023-11-19T13:48:40;12.80;71.70
37794;DHT22;23632;48.826;15.176;2023-11-19T13:51:08;12.80;71.70
37794;DHT22;23632;48.826;15.176;2023-11-19T13:53:37;12.80;71.60
37794;DHT22;23632;48.826;15.176;2023-11-19T13:56:08;12.80;71.60
37794;DHT22;23632;48.826;15.176;2023-11-19T13:58:36;12.80;71.60
37794;DHT22;23632;48.826;15.176;2023-11-19T14:01:04;12.80;71.70
37794;DHT22;23632;48.826;15.176;2023-11-19T14:03:32;12.80;71.50
37794;DHT22;23632;48.826;15.176;2023-11-19T14:06:01;12.80;71.60
37794;DHT22;23632;48.826;15.176;2023-11-19T14:08:30;12.80;71.60
37794;DHT22;23632;48.826;15.176;2023-11-19T14:10:58;12.80;71.60
37794;DHT22;23632;48.826;15.176;2023-11-19T14:13:26;12.80;71.50
37794;DHT22;23632;48.826;15.176;2023-11-19T14:15:53;12.80;71.50
37794;DHT22;23632;48.826;15.176;2023-11-19T14:18:22;12.80;72.50
37794;DHT22;23632;48.826;15.176;2023-11-19T14:20:51;12.80;71.50
37794;DHT22;23632;48.826;15.176;2023-11-19T14:23:18;12.80;71.60
37794;DHT22;23632;48.826;15.176;2023-11-19T14:25:46;12.90;71.60
37794;DHT22;23632;48.826;15.176;2023-11-19T14:28:13;12.80;71.60
37794;DHT22;23632;48.826;15.176;2023-11-19T14:30:41;12.80;71.60
37794;DHT22;23632;48.826;15.176;2023-11-19T14:33:09;12.80;71.50
37794;DHT22;23632;48.826;15.176;2023-11-19T14:35:36;12.80;71.50
37794;DHT22;23632;48.826;15.176;2023-11-19T14:38:04;12.80;71.50
37794;DHT22;23632;48.826;15.176;2023-11-19T14:40:32;12.90;71.70
37794;DHT22;23632;48.826;15.176;2023-11-19T14:43:02;12.80;71.70
37794;DHT22;23632;48.826;15.176;2023-11-19T14:45:30;12.90;71.70
37794;DHT22;23632;48.826;15.176;2023-11-19T14:48:11;12.90;71.80
37794;DHT22;23632;48.826;15.176;2023-11-19T14:50:38;12.90;71.70
37794;DHT22;23632;48.826;15.176;2023-11-19T14:53:06;12.90;71.70
37794;DHT22;23632;48.826;15.176;2023-11-19T14:55:34;12.90;71.70
37794;DHT22;23632;48.826;15.176;2023-11-19T14:58:02;12.90;71.70
37794;DHT22;23632;48.826;15.176;2023-11-19T15:00:37;12.90;71.70
37794;DHT22;23632;48.826;15.176;2023-11-19T15:03:06;12.90;71.70
37794;DHT22;23632;48.826;15.176;2023-11-19T15:19:14;12.90;71.50
37794;DHT22;23632;48.826;15.176;2023-11-19T15:21:43;12.90;71.50
37794;DHT22;23632;48.826;15.176;2023-11-19T15:24:14;12.90;71.60
37794;DHT22;23632;48.826;15.176;2023-11-19T15:26:43;12.90;71.60
37794;DHT22;23632;48.826;15.176;2023-11-19T15:29:11;12.90;71.40
37794;DHT22;23632;48.826;15.176;2023-11-19T15:31:41;12.90;71.50
37794;DHT22;23632;48.826;15.176;2023-11-19T15:34:08;12.90;71.40
37794;DHT22;23632;48.826;15.176;2023-11-19T15:36:39;12.80;71.40
37794;DHT22;23632;48.826;15.176;2023-11-19T15:39:06;12.80;71.40
37794;DHT22;23632;48.826;15.176;2023-11-19T15:41:34;12.80;71.40
